Time;durP1;ratioP1;P1;durP2;ratioP2;P2;SDS_P1;SDS_P2;PMS_P1;PMS_P2;Temp;Humidity;BMP_temperature;BMP_pressure;BME280_temperature;BME280_humidity;BME280_pressure;Samples;Min_cycle;Max_cycle;Signal;HPM_P1;HPM_P2
2023/03/21 00:01:27;;;;;;;10.60;7.75;;;;;;;;;;6095242;23;20041;-78
2023/03/21 00:03:52;;;;;;;11.73;7.20;;;;;;;;;;6120992;23;20084;-78
2023/03/21 00:06:18;;;;;;;11.27;7.57;;;;;;;;;;6119760;23;20013;-77
2023/03/21 00:08:43;;;;;;;11.38;6.90;;;;;;;;;;6120692;23;20454;-78
2023/03/21 00:11:10;;;;;;;10.25;7.40;;;;;;;;;;6145839;23;20021;-78
2023/03/21 00:13:37;;;;;;;11.93;8.32;;;;;;;;;;6121908;23;20463;-78
2023/03/21 00:16:04;;;;;;;12.23;7.68;;;;;;;;;;6119878;23;20383;-78
2023/03/21 00:18:30;;;;;;;11.73;7.32;;;;;;;;;;6120924;23;20013;-78
2023/03/21 00:21:00;;;;;;;11.73;7.60;;;;;;;;;;6120376;23;20148;-78
2023/03/21 00:23:26;;;;;;;12.23;7.38;;;;;;;;;;6120300;23;20132;-78
2023/03/21 00:25:53;;;;;;;11.30;7.30;;;;;;;;;;6120211;23;20049;-78
2023/03/21 00:28:18;;;;;;;13.00;7.88;;;;;;;;;;6120229;23;20028;-78
2023/03/21 00:30:44;;;;;;;10.25;7.13;;;;;;;;;;6120062;23;20049;-78
2023/03/21 00:33:09;;;;;;;12.18;7.70;;;;;;;;;;6120722;23;20025;-78
2023/03/21 00:35:34;;;;;;;10.60;7.18;;;;;;;;;;6120478;23;20020;-78
2023/03/21 00:38:01;;;;;;;10.57;7.07;;;;;;;;;;6120481;23;20089;-78
2023/03/21 00:40:27;;;;;;;9.68;6.43;;;;;;;;;;6145906;23;20104;-78
2023/03/21 00:42:52;;;;;;;11.30;7.20;;;;;;;;;;6146686;23;20081;-78
2023/03/21 00:45:18;;;;;;;10.55;6.80;;;;;;;;;;6095347;23;20017;-78
2023/03/21 00:47:44;;;;;;;12.30;7.35;;;;;;;;;;6146049;23;20025;-78
2023/03/21 00:50:10;;;;;;;10.25;6.93;;;;;;;;;;6145832;23;20060;-78
2023/03/21 00:52:37;;;;;;;10.23;6.85;;;;;;;;;;6146933;23;20057;-78
2023/03/21 00:55:03;;;;;;;10.38;6.97;;;;;;;;;;6120681;23;20025;-78
2023/03/21 00:57:29;;;;;;;10.25;7.10;;;;;;;;;;6120283;23;20347;-78
2023/03/21 00:59:56;;;;;;;16.70;8.63;;;;;;;;;;6146463;23;20009;-78
2023/03/21 01:02:25;;;;;;;9.43;6.40;;;;;;;;;;6120514;23;20024;-78
2023/03/21 01:04:52;;;;;;;12.13;7.55;;;;;;;;;;6146170;23;20017;-78
2023/03/21 01:07:17;;;;;;;10.98;7.05;;;;;;;;;;6119489;23;20022;-77
2023/03/21 01:09:43;;;;;;;12.20;7.75;;;;;;;;;;6120245;23;20474;-78
2023/03/21 01:12:09;;;;;;;12.95;8.07;;;;;;;;;;6146148;23;20028;-78
2023/03/21 01:14:35;;;;;;;12.82;8.23;;;;;;;;;;6120610;23;20024;-78
2023/03/21 01:17:01;;;;;;;13.30;8.50;;;;;;;;;;6119820;23;20021;-77
2023/03/21 01:19:28;;;;;;;13.30;8.52;;;;;;;;;;6095588;23;20400;-78
2023/03/21 01:21:54;;;;;;;14.48;8.38;;;;;;;;;;6120376;23;20017;-78
2023/03/21 01:24:20;;;;;;;14.32;8.65;;;;;;;;;;6147008;23;20507;-78
2023/03/21 01:26:45;;;;;;;14.68;9.35;;;;;;;;;;6094675;23;20041;-78
2023/03/21 01:29:11;;;;;;;15.77;9.68;;;;;;;;;;6146259;23;20025;-78
2023/03/21 01:31:36;;;;;;;14.10;9.77;;;;;;;;;;6120372;23;20024;-78
2023/03/21 01:34:02;;;;;;;17.27;10.45;;;;;;;;;;6119282;23;20017;-77
2023/03/21 01:36:27;;;;;;;16.25;10.10;;;;;;;;;;6145730;23;20021;-78
2023/03/21 01:38:53;;;;;;;15.98;10.13;;;;;;;;;;6119035;23;20029;-78
2023/03/21 01:41:26;;;;;;;17.60;10.65;;;;;;;;;;6119032;23;20399;-78
2023/03/21 01:43:51;;;;;;;17.35;11.20;;;;;;;;;;6095445;23;20368;-78
2023/03/21 01:46:41;;;;;;;17.23;12.00;;;;;;;;;;6119068;23;20095;-78
2023/03/21 01:49:16;;;;;;;19.10;12.25;;;;;;;;;;6145855;23;20013;-77
2023/03/21 01:51:45;;;;;;;17.40;10.98;;;;;;;;;;6118879;23;20014;-78
2023/03/21 01:54:15;;;;;;;20.65;12.57;;;;;;;;;;6095543;23;20024;-78
2023/03/21 01:56:41;;;;;;;18.75;12.13;;;;;;;;;;6120253;23;20013;-77
2023/03/21 01:59:13;;;;;;;18.55;12.20;;;;;;;;;;6120581;23;20028;-77
2023/03/21 02:01:41;;;;;;;20.70;12.73;;;;;;;;;;6145796;23;20439;-78
2023/03/21 02:04:07;;;;;;;17.88;11.27;;;;;;;;;;6146583;23;20384;-77
2023/03/21 02:06:36;;;;;;;18.75;12.50;;;;;;;;;;6119726;23;20693;-78
2023/03/21 02:09:07;;;;;;;19.17;11.80;;;;;;;;;;6118879;23;20336;-77
2023/03/21 02:11:35;;;;;;;21.58;11.75;;;;;;;;;;6144456;23;20017;-77
2023/03/21 02:14:01;;;;;;;23.23;12.85;;;;;;;;;;6119254;23;20708;-76
2023/03/21 02:16:45;;;;;;;21.50;12.88;;;;;;;;;;6118797;23;20406;-77
2023/03/21 02:19:22;;;;;;;23.40;13.02;;;;;;;;;;6118619;23;20395;-77
2023/03/21 02:22:05;;;;;;;19.80;12.32;;;;;;;;;;6144766;23;20017;-77
2023/03/21 02:24:33;;;;;;;24.15;12.77;;;;;;;;;;6093190;23;20458;-76
2023/03/21 02:27:27;;;;;;;22.13;12.70;;;;;;;;;;6118570;23;20021;-77
2023/03/21 02:30:12;;;;;;;20.25;12.55;;;;;;;;;;6139130;23;20486;-76
2023/03/21 02:33:09;;;;;;;19.95;12.27;;;;;;;;;;6117981;23;20017;-77
2023/03/21 02:35:56;;;;;;;19.50;11.88;;;;;;;;;;6092594;23;20025;-78
2023/03/21 02:38:24;;;;;;;19.48;11.90;;;;;;;;;;6144674;23;20026;-77
2023/03/21 02:41:04;;;;;;;19.50;12.18;;;;;;;;;;6143699;23;20084;-77
2023/03/21 02:43:29;;;;;;;18.55;11.23;;;;;;;;;;6094134;23;20104;-77
2023/03/21 02:46:04;;;;;;;20.42;12.35;;;;;;;;;;6144336;23;20406;-77
2023/03/21 02:48:45;;;;;;;22.38;12.55;;;;;;;;;;6145040;23;20061;-77
2023/03/21 02:51:12;;;;;;;19.65;12.00;;;;;;;;;;6117644;23;20072;-77
2023/03/21 02:53:39;;;;;;;19.73;11.85;;;;;;;;;;6094973;23;20085;-77
2023/03/21 02:56:09;;;;;;;19.33;11.27;;;;;;;;;;6118277;23;20048;-77
2023/03/21 02:58:37;;;;;;;20.20;11.60;;;;;;;;;;6144971;23;20109;-77
2023/03/21 03:01:02;;;;;;;;;;;;;;;;;;6118560;23;20021;-77
2023/03/21 03:03:28;;;;;;;19.77;11.13;;;;;;;;;;6144850;23;20235;-77
2023/03/21 03:05:56;;;;;;;20.70;11.82;;;;;;;;;;6116956;23;20014;-77
2023/03/21 03:08:35;;;;;;;18.65;11.23;;;;;;;;;;6119611;23;20032;-78
2023/03/21 03:11:22;;;;;;;18.63;11.45;;;;;;;;;;6144327;23;20021;-76
2023/03/21 03:14:19;;;;;;;20.65;11.90;;;;;;;;;;6144944;23;20017;-77
2023/03/21 03:17:02;;;;;;;20.92;11.25;;;;;;;;;;6144578;23;20487;-77
2023/03/21 03:19:35;;;;;;;20.25;11.95;;;;;;;;;;6118760;23;20109;-77
2023/03/21 03:22:13;;;;;;;21.08;13.18;;;;;;;;;;6093958;23;20028;-77
2023/03/21 03:24:58;;;;;;;19.83;11.40;;;;;;;;;;6118781;23;20076;-77
2023/03/21 03:27:28;;;;;;;21.40;12.05;;;;;;;;;;6119259;23;20028;-79
2023/03/21 03:29:56;;;;;;;21.95;12.07;;;;;;;;;;6094448;23;20013;-79
2023/03/21 03:32:27;;;;;;;22.38;12.65;;;;;;;;;;6119240;23;20029;-79
2023/03/21 03:34:55;;;;;;;18.98;11.13;;;;;;;;;;6118882;23;20009;-79
2023/03/21 03:37:25;;;;;;;19.98;11.43;;;;;;;;;;6095326;23;20092;-78
2023/03/21 03:40:01;;;;;;;19.50;11.52;;;;;;;;;;6118423;23;20435;-79
2023/03/21 03:42:52;;;;;;;22.27;12.07;;;;;;;;;;6118209;23;20024;-81
2023/03/21 03:45:19;;;;;;;20.58;12.27;;;;;;;;;;6129313;23;20478;-82
2023/03/21 03:48:10;;;;;;;21.55;12.48;;;;;;;;;;6094412;23;20020;-82
2023/03/21 03:50:47;;;;;;;20.02;11.73;;;;;;;;;;6145215;23;20021;-82
2023/03/21 03:53:15;;;;;;;20.45;11.35;;;;;;;;;;6118903;23;20018;-81
2023/03/21 03:55:42;;;;;;;18.95;10.88;;;;;;;;;;6117915;23;20017;-81
2023/03/21 03:58:07;;;;;;;23.20;12.32;;;;;;;;;;6120344;23;20352;-82
2023/03/21 04:00:33;;;;;;;21.27;11.77;;;;;;;;;;6144697;23;20009;-81
2023/03/21 04:02:58;;;;;;;23.95;12.30;;;;;;;;;;6119975;23;20029;-80
2023/03/21 04:05:25;;;;;;;21.75;11.57;;;;;;;;;;6117989;23;20160;-83
2023/03/21 04:07:50;;;;;;;20.92;11.85;;;;;;;;;;6145685;23;20024;-82
2023/03/21 04:10:16;;;;;;;21.20;11.35;;;;;;;;;;6145030;23;20033;-81
2023/03/21 04:12:42;;;;;;;19.52;11.20;;;;;;;;;;6120584;23;20044;-82
2023/03/21 04:15:08;;;;;;;19.00;11.23;;;;;;;;;;6118642;23;20018;-81
2023/03/21 04:17:33;;;;;;;19.73;10.75;;;;;;;;;;6147331;23;20010;-82
2023/03/21 04:19:59;;;;;;;20.38;11.48;;;;;;;;;;6147633;23;20040;-82
2023/03/21 04:22:25;;;;;;;20.13;11.45;;;;;;;;;;6120948;23;20022;-82
2023/03/21 04:24:52;;;;;;;21.52;11.60;;;;;;;;;;6147205;23;20100;-83
2023/03/21 04:27:17;;;;;;;22.38;12.07;;;;;;;;;;6121983;23;20025;-82
2023/03/21 04:29:43;;;;;;;20.15;11.10;;;;;;;;;;6121735;23;20076;-82
2023/03/21 04:32:15;;;;;;;21.40;11.68;;;;;;;;;;6134567;23;20022;-82
2023/03/21 04:34:42;;;;;;;20.92;11.23;;;;;;;;;;6122477;23;20010;-82
2023/03/21 04:37:10;;;;;;;20.67;10.68;;;;;;;;;;6121654;23;20025;-83
2023/03/21 04:39:37;;;;;;;20.25;11.77;;;;;;;;;;6122005;23;20022;-84
2023/03/21 04:42:03;;;;;;;20.40;11.48;;;;;;;;;;6122316;23;20021;-84
2023/03/21 04:44:28;;;;;;;21.45;11.55;;;;;;;;;;6122028;23;20092;-85
2023/03/21 04:46:54;;;;;;;19.67;11.02;;;;;;;;;;6121695;23;20830;-84
2023/03/21 04:49:20;;;;;;;21.77;10.60;;;;;;;;;;6121773;23;20033;-84
2023/03/21 04:51:45;;;;;;;20.33;11.02;;;;;;;;;;6096929;23;20068;-84
2023/03/21 04:54:12;;;;;;;22.33;10.93;;;;;;;;;;6124275;23;20021;-83
2023/03/21 04:56:38;;;;;;;20.42;11.30;;;;;;;;;;6122694;23;20018;-84
2023/03/21 04:59:12;;;;;;;18.08;10.73;;;;;;;;;;6123150;23;20411;-83
2023/03/21 05:01:40;;;;;;;22.30;11.23;;;;;;;;;;6125386;23;20014;-85
2023/03/21 05:04:05;;;;;;;19.98;11.00;;;;;;;;;;6151931;23;20018;-85
2023/03/21 05:06:32;;;;;;;21.65;10.95;;;;;;;;;;6103609;23;20148;-85
2023/03/21 05:09:00;;;;;;;19.23;10.50;;;;;;;;;;6125132;23;20013;-84
2023/03/21 05:11:32;;;;;;;25.42;12.02;;;;;;;;;;6125599;23;20092;-85
2023/03/21 05:14:00;;;;;;;21.67;12.00;;;;;;;;;;6125745;23;20013;-84
2023/03/21 05:16:29;;;;;;;22.67;12.75;;;;;;;;;;6119938;23;20017;-77
2023/03/21 05:19:03;;;;;;;24.55;11.57;;;;;;;;;;6120557;23;20447;-79
2023/03/21 05:21:40;;;;;;;22.23;11.63;;;;;;;;;;6095801;23;20017;-79
2023/03/21 05:24:11;;;;;;;25.40;13.07;;;;;;;;;;6097290;23;20016;-81
2023/03/21 05:26:37;;;;;;;22.55;11.85;;;;;;;;;;6095977;23;20101;-82
2023/03/21 05:29:03;;;;;;;21.50;11.27;;;;;;;;;;6119035;23;20411;-82
2023/03/21 05:31:28;;;;;;;21.13;11.25;;;;;;;;;;6146098;23;20104;-82
2023/03/21 05:33:53;;;;;;;21.58;11.82;;;;;;;;;;6119622;23;20620;-82
2023/03/21 05:36:19;;;;;;;22.77;12.30;;;;;;;;;;6118924;23;20040;-82
2023/03/21 05:38:45;;;;;;;23.98;11.50;;;;;;;;;;6095776;23;20416;-82
2023/03/21 05:41:12;;;;;;;24.92;12.52;;;;;;;;;;6118907;23;20499;-82
2023/03/21 05:43:37;;;;;;;23.60;11.27;;;;;;;;;;6120427;23;20021;-83
2023/03/21 05:46:03;;;;;;;27.33;11.55;;;;;;;;;;6118893;23;20009;-82
2023/03/21 05:48:28;;;;;;;21.92;11.90;;;;;;;;;;6146102;23;20018;-83
2023/03/21 05:50:54;;;;;;;22.63;12.07;;;;;;;;;;6119404;23;20017;-83
2023/03/21 05:53:20;;;;;;;21.52;11.40;;;;;;;;;;6095263;23;20460;-82
2023/03/21 05:55:45;;;;;;;23.98;13.00;;;;;;;;;;6119605;23;20013;-82
2023/03/21 05:58:11;;;;;;;23.65;11.23;;;;;;;;;;6120247;23;20014;-82
2023/03/21 06:00:38;;;;;;;22.70;12.25;;;;;;;;;;6146037;23;20017;-82
2023/03/21 06:03:03;;;;;;;23.25;12.20;;;;;;;;;;6146714;23;20343;-83
2023/03/21 06:05:29;;;;;;;22.60;11.90;;;;;;;;;;6146157;23;20017;-83
2023/03/21 06:07:54;;;;;;;22.58;11.57;;;;;;;;;;6119852;23;20040;-78
2023/03/21 06:10:20;;;;;;;21.55;12.23;;;;;;;;;;6117744;23;20017;-78
2023/03/21 06:12:45;;;;;;;23.17;11.55;;;;;;;;;;6145820;23;20060;-78
2023/03/21 06:15:11;;;;;;;24.17;12.48;;;;;;;;;;6144948;23;20101;-78
2023/03/21 06:17:37;;;;;;;21.38;12.13;;;;;;;;;;6120536;23;20014;-78
2023/03/21 06:20:03;;;;;;;23.48;11.63;;;;;;;;;;6119933;23;20024;-78
2023/03/21 06:22:30;;;;;;;25.77;12.70;;;;;;;;;;6118487;23;20013;-78
2023/03/21 06:24:55;;;;;;;22.52;12.05;;;;;;;;;;6119466;23;20013;-78
2023/03/21 06:27:21;;;;;;;23.27;12.15;;;;;;;;;;6118921;23;20406;-78
2023/03/21 06:29:46;;;;;;;23.65;11.93;;;;;;;;;;6119737;23;20029;-78
2023/03/21 06:32:12;;;;;;;24.92;11.77;;;;;;;;;;6119414;23;20025;-78
2023/03/21 06:34:37;;;;;;;24.20;12.35;;;;;;;;;;6119955;23;20348;-79
2023/03/21 06:37:03;;;;;;;25.98;12.68;;;;;;;;;;6119470;23;20075;-80
2023/03/21 06:39:30;;;;;;;22.55;11.95;;;;;;;;;;6118873;23;20025;-79
2023/03/21 06:41:56;;;;;;;23.47;12.37;;;;;;;;;;6118888;23;20021;-78
2023/03/21 06:44:23;;;;;;;22.65;12.20;;;;;;;;;;6145407;23;20072;-80
2023/03/21 06:46:50;;;;;;;25.25;12.90;;;;;;;;;;6094026;23;20017;-84
2023/03/21 06:49:16;;;;;;;22.98;12.20;;;;;;;;;;6094743;23;20485;-84
2023/03/21 06:51:41;;;;;;;26.83;12.95;;;;;;;;;;6119355;23;20037;-84
2023/03/21 06:54:07;;;;;;;24.40;12.50;;;;;;;;;;6147162;23;20037;-84
2023/03/21 06:56:32;;;;;;;24.90;13.38;;;;;;;;;;6119352;23;20421;-85
2023/03/21 06:58:58;;;;;;;27.13;13.45;;;;;;;;;;6119449;23;20179;-84
2023/03/21 07:01:26;;;;;;;27.02;13.23;;;;;;;;;;6118992;23;20009;-84
2023/03/21 07:03:52;;;;;;;28.67;14.07;;;;;;;;;;6119717;23;20032;-84
2023/03/21 07:06:18;;;;;;;26.08;13.38;;;;;;;;;;6145669;23;20014;-84
2023/03/21 07:08:43;;;;;;;26.67;13.40;;;;;;;;;;6119896;23;20021;-83
2023/03/21 07:11:09;;;;;;;25.88;12.93;;;;;;;;;;6118285;23;20009;-84
2023/03/21 07:13:34;;;;;;;25.63;13.10;;;;;;;;;;6107685;23;20013;-84
2023/03/21 07:16:00;;;;;;;29.65;12.90;;;;;;;;;;6118511;23;20021;-79
2023/03/21 07:18:26;;;;;;;29.15;14.27;;;;;;;;;;6120063;23;20072;-79
2023/03/21 07:20:51;;;;;;;27.70;13.52;;;;;;;;;;6143858;23;20052;-79
2023/03/21 07:23:18;;;;;;;26.63;13.68;;;;;;;;;;6119257;23;20121;-79
2023/03/21 07:25:44;;;;;;;26.63;13.13;;;;;;;;;;6093680;23;20028;-79
2023/03/21 07:28:09;;;;;;;25.75;13.13;;;;;;;;;;6144228;23;20013;-78
2023/03/21 07:30:35;;;;;;;25.73;12.30;;;;;;;;;;6095046;23;20503;-79
2023/03/21 07:33:01;;;;;;;24.65;12.82;;;;;;;;;;6094428;23;20041;-79
2023/03/21 07:35:27;;;;;;;24.05;12.52;;;;;;;;;;6144688;23;20021;-78
2023/03/21 07:37:52;;;;;;;29.42;14.00;;;;;;;;;;6144772;23;20036;-78
2023/03/21 07:40:18;;;;;;;23.67;12.57;;;;;;;;;;6118021;23;20363;-79
2023/03/21 07:42:43;;;;;;;26.15;12.98;;;;;;;;;;6094521;23;20464;-79
2023/03/21 07:45:09;;;;;;;26.38;13.35;;;;;;;;;;6117760;23;20522;-79
2023/03/21 07:47:35;;;;;;;23.02;12.45;;;;;;;;;;6095106;23;20029;-79
2023/03/21 07:50:03;;;;;;;22.95;11.98;;;;;;;;;;6093948;23;20403;-79
2023/03/21 07:52:29;;;;;;;20.20;11.27;;;;;;;;;;6120240;23;20029;-79
2023/03/21 07:54:54;;;;;;;26.58;13.20;;;;;;;;;;6120704;23;20472;-79
2023/03/21 07:57:20;;;;;;;24.05;12.38;;;;;;;;;;6095213;23;20021;-79
2023/03/21 07:59:45;;;;;;;23.92;11.73;;;;;;;;;;6095725;23;20006;-79
2023/03/21 08:02:13;;;;;;;23.30;11.75;;;;;;;;;;6096541;23;20024;-79
2023/03/21 08:04:39;;;;;;;25.20;12.13;;;;;;;;;;6096437;23;20009;-80
2023/03/21 08:07:05;;;;;;;24.08;11.68;;;;;;;;;;6121169;23;20014;-79
2023/03/21 08:09:31;;;;;;;22.25;11.70;;;;;;;;;;6120414;23;20017;-79
2023/03/21 08:11:56;;;;;;;25.05;12.27;;;;;;;;;;6119384;23;20025;-79
2023/03/21 08:14:22;;;;;;;22.33;12.13;;;;;;;;;;6119770;23;20027;-79
2023/03/21 08:16:47;;;;;;;25.20;12.15;;;;;;;;;;6146510;23;20024;-79
2023/03/21 08:19:13;;;;;;;23.30;11.32;;;;;;;;;;6147366;23;20017;-80
2023/03/21 08:21:38;;;;;;;28.45;11.90;;;;;;;;;;6147096;23;20470;-79
2023/03/21 08:24:05;;;;;;;25.08;12.32;;;;;;;;;;6097006;23;20072;-79
2023/03/21 08:26:31;;;;;;;24.65;11.60;;;;;;;;;;6119832;23;20391;-79
2023/03/21 08:28:56;;;;;;;23.35;11.95;;;;;;;;;;6120990;23;20018;-80
2023/03/21 08:31:22;;;;;;;23.40;11.95;;;;;;;;;;6119812;23;20009;-80
2023/03/21 08:33:52;;;;;;;27.10;13.23;;;;;;;;;;6120766;23;20097;-79
2023/03/21 08:36:17;;;;;;;27.00;11.57;;;;;;;;;;6146139;23;20096;-79
2023/03/21 08:38:44;;;;;;;21.13;11.05;;;;;;;;;;6096141;23;20053;-79
2023/03/21 08:41:10;;;;;;;21.80;11.27;;;;;;;;;;6120166;23;20582;-79
2023/03/21 08:43:36;;;;;;;22.55;11.43;;;;;;;;;;6120942;23;20009;-79
2023/03/21 08:46:03;;;;;;;25.55;11.80;;;;;;;;;;6146354;23;20013;-79
2023/03/21 08:48:28;;;;;;;23.47;10.97;;;;;;;;;;6146547;23;20783;-78
2023/03/21 08:50:54;;;;;;;25.20;11.45;;;;;;;;;;6095191;23;20021;-79
2023/03/21 08:53:19;;;;;;;23.90;11.55;;;;;;;;;;6120431;23;20048;-79
2023/03/21 08:55:45;;;;;;;21.38;11.02;;;;;;;;;;6145611;23;20088;-79
2023/03/21 08:58:10;;;;;;;22.38;11.70;;;;;;;;;;6120454;23;20005;-79
2023/03/21 09:00:36;;;;;;;24.58;11.65;;;;;;;;;;6119954;23;20460;-79
2023/03/21 09:03:03;;;;;;;23.58;12.38;;;;;;;;;;6146481;23;20072;-80
2023/03/21 09:05:29;;;;;;;27.00;12.40;;;;;;;;;;6095977;23;20024;-80
2023/03/21 09:07:55;;;;;;;21.95;11.32;;;;;;;;;;6120061;23;20013;-79
2023/03/21 09:10:22;;;;;;;22.70;11.65;;;;;;;;;;6119916;23;20025;-79
2023/03/21 09:12:48;;;;;;;21.13;11.30;;;;;;;;;;6120384;23;20013;-79
2023/03/21 09:15:14;;;;;;;22.35;11.80;;;;;;;;;;6119305;23;20347;-79
2023/03/21 09:17:42;;;;;;;23.65;11.90;;;;;;;;;;6120169;23;20014;-80
2023/03/21 09:20:17;;;;;;;22.50;11.60;;;;;;;;;;6120929;23;20028;-79
2023/03/21 09:22:43;;;;;;;21.90;11.57;;;;;;;;;;6096922;23;20017;-79
2023/03/21 09:25:10;;;;;;;23.05;10.98;;;;;;;;;;6095008;23;20014;-79
2023/03/21 09:27:36;;;;;;;23.58;11.82;;;;;;;;;;6096930;23;20376;-79
2023/03/21 09:30:02;;;;;;;22.65;11.18;;;;;;;;;;6119038;23;20021;-78
2023/03/21 09:32:28;;;;;;;23.80;11.18;;;;;;;;;;6120029;23;20455;-78
2023/03/21 09:34:54;;;;;;;19.15;9.98;;;;;;;;;;6120072;23;20411;-79
2023/03/21 09:37:21;;;;;;;21.20;10.88;;;;;;;;;;6095300;23;20248;-79
2023/03/21 09:39:49;;;;;;;22.80;11.47;;;;;;;;;;6119558;23;20040;-79
2023/03/21 09:42:33;;;;;;;20.13;10.90;;;;;;;;;;6119700;23;20072;-79
2023/03/21 09:45:12;;;;;;;18.83;10.50;;;;;;;;;;6119089;23;20021;-79
2023/03/21 09:47:48;;;;;;;21.15;11.13;;;;;;;;;;6094951;23;20063;-79
2023/03/21 09:50:16;;;;;;;21.08;10.85;;;;;;;;;;6094911;23;20024;-78
2023/03/21 09:52:46;;;;;;;21.83;11.32;;;;;;;;;;6114567;23;20029;-79
2023/03/21 09:55:25;;;;;;;20.27;10.57;;;;;;;;;;6094510;23;20013;-78
2023/03/21 09:58:00;;;;;;;21.58;11.88;;;;;;;;;;6120378;23;20043;-79
2023/03/21 10:00:34;;;;;;;21.23;11.00;;;;;;;;;;6118966;23;20033;-79
2023/03/21 10:03:05;;;;;;;22.77;11.27;;;;;;;;;;6119921;23;20088;-79
2023/03/21 10:05:32;;;;;;;21.45;10.68;;;;;;;;;;6119551;23;20444;-79
2023/03/21 10:08:03;;;;;;;21.02;10.98;;;;;;;;;;6095658;23;20088;-79
2023/03/21 10:10:35;;;;;;;19.25;10.35;;;;;;;;;;6119220;23;20939;-79
2023/03/21 10:13:01;;;;;;;19.65;10.25;;;;;;;;;;6095627;23;20021;-79
2023/03/21 10:15:27;;;;;;;18.30;9.60;;;;;;;;;;6118525;23;20134;-79
2023/03/21 10:18:00;;;;;;;17.85;9.65;;;;;;;;;;6146296;23;20068;-79
2023/03/21 10:20:36;;;;;;;23.25;10.77;;;;;;;;;;6118659;23;20025;-79
2023/03/21 10:23:07;;;;;;;17.85;10.00;;;;;;;;;;6119899;23;20014;-79
2023/03/21 10:25:39;;;;;;;16.17;9.10;;;;;;;;;;6118300;23;20018;-80
2023/03/21 10:28:06;;;;;;;19.70;10.60;;;;;;;;;;6120485;23;20443;-79
2023/03/21 10:30:44;;;;;;;17.95;10.13;;;;;;;;;;6093447;23;20021;-79
2023/03/21 10:33:22;;;;;;;16.83;9.38;;;;;;;;;;6145776;23;20448;-79
2023/03/21 10:35:51;;;;;;;;;;;;;;;;;;6119003;23;20018;-79
2023/03/21 10:38:18;;;;;;;19.42;9.38;;;;;;;;;;6119323;23;19919;-79
2023/03/21 10:40:44;;;;;;;17.17;8.95;;;;;;;;;;6117962;23;20448;-79
2023/03/21 10:43:33;;;;;;;16.80;8.88;;;;;;;;;;6119939;23;20016;-79
2023/03/21 10:46:05;;;;;;;17.40;8.02;;;;;;;;;;6118842;23;20088;-79
2023/03/21 10:48:34;;;;;;;18.38;9.13;;;;;;;;;;6119469;23;20144;-78
2023/03/21 10:51:00;;;;;;;19.35;9.80;;;;;;;;;;6118434;23;20482;-79
2023/03/21 10:53:50;;;;;;;16.73;9.13;;;;;;;;;;6118808;23;20013;-78
2023/03/21 10:56:15;;;;;;;16.45;8.60;;;;;;;;;;6118888;23;20014;-79
2023/03/21 10:58:44;;;;;;;16.75;8.82;;;;;;;;;;6119285;23;20017;-78
2023/03/21 11:01:14;;;;;;;15.07;8.23;;;;;;;;;;6094670;23;20072;-79
2023/03/21 11:03:42;;;;;;;16.20;9.07;;;;;;;;;;6120122;23;20017;-79
2023/03/21 11:06:16;;;;;;;15.68;8.57;;;;;;;;;;6094610;23;20422;-82
2023/03/21 11:08:54;;;;;;;15.82;8.45;;;;;;;;;;6118791;23;20460;-82
2023/03/21 11:11:41;;;;;;;14.40;8.02;;;;;;;;;;6144337;23;20018;-81
2023/03/21 11:14:20;;;;;;;14.75;7.75;;;;;;;;;;6144027;23;20172;-81
2023/03/21 11:16:45;;;;;;;14.27;7.68;;;;;;;;;;6118943;23;20049;-82
2023/03/21 11:19:12;;;;;;;14.05;7.72;;;;;;;;;;6095119;23;20018;-81
2023/03/21 11:21:38;;;;;;;14.77;7.82;;;;;;;;;;6145505;23;20045;-82
2023/03/21 11:24:05;;;;;;;12.13;6.78;;;;;;;;;;6094505;23;20034;-79
2023/03/21 11:26:35;;;;;;;13.93;7.97;;;;;;;;;;6145283;23;20024;-80
2023/03/21 11:29:09;;;;;;;13.43;7.22;;;;;;;;;;6121087;23;20045;-80
2023/03/21 11:31:38;;;;;;;13.75;7.75;;;;;;;;;;6120213;23;20028;-80
2023/03/21 11:34:06;;;;;;;12.52;6.97;;;;;;;;;;6121054;23;20490;-81
2023/03/21 11:36:34;;;;;;;13.05;7.30;;;;;;;;;;6120985;23;20385;-81
2023/03/21 11:39:08;;;;;;;;;;;;;;;;;;6146775;23;20032;-81
2023/03/21 11:41:33;;;;;;;12.55;6.15;;;;;;;;;;6147234;23;20250;-81
2023/03/21 11:44:00;;;;;;;12.05;6.88;;;;;;;;;;6096427;23;20025;-81
2023/03/21 11:46:28;;;;;;;12.00;6.70;;;;;;;;;;6120986;23;20451;-81
2023/03/21 11:48:54;;;;;;;;;;;;;;;;;;6096635;23;20021;-80
2023/03/21 11:51:39;;;;;;;10.65;5.90;;;;;;;;;;6169993;23;19919;-80
2023/03/21 11:54:11;;;;;;;10.50;5.85;;;;;;;;;;6146792;23;20018;-81
2023/03/21 11:56:43;;;;;;;10.20;5.70;;;;;;;;;;6147156;23;20447;-80
2023/03/21 11:59:20;;;;;;;11.07;6.10;;;;;;;;;;6096993;23;20041;-81
2023/03/21 12:01:59;;;;;;;12.02;5.60;;;;;;;;;;6120711;23;20017;-81
2023/03/21 12:04:25;;;;;;;10.73;5.55;;;;;;;;;;6144001;23;20542;-81
2023/03/21 12:07:06;;;;;;;10.57;5.60;;;;;;;;;;6146624;23;20721;-78
2023/03/21 12:09:44;;;;;;;10.60;5.90;;;;;;;;;;6120853;23;20104;-78
2023/03/21 12:12:26;;;;;;;9.85;5.85;;;;;;;;;;6145910;23;20020;-78
2023/03/21 12:15:19;;;;;;;10.38;5.60;;;;;;;;;;6121006;23;20089;-78
2023/03/21 12:17:49;;;;;;;11.25;5.50;;;;;;;;;;6120982;23;20022;-78
2023/03/21 12:20:22;;;;;;;11.38;6.13;;;;;;;;;;6145455;23;20354;-78
2023/03/21 12:23:06;;;;;;;10.07;5.13;;;;;;;;;;6121637;23;20356;-78
2023/03/21 12:25:37;;;;;;;8.68;5.10;;;;;;;;;;6145677;23;20080;-79
2023/03/21 12:28:17;;;;;;;8.30;5.05;;;;;;;;;;6096799;23;20278;-78
2023/03/21 12:31:11;;;;;;;9.20;5.25;;;;;;;;;;6143439;23;20024;-78
2023/03/21 12:33:47;;;;;;;9.75;5.38;;;;;;;;;;6144596;23;20017;-78
2023/03/21 12:36:40;;;;;;;8.77;4.70;;;;;;;;;;6124415;23;20321;-79
2023/03/21 12:39:31;;;;;;;10.02;4.90;;;;;;;;;;6143855;23;20494;-78
2023/03/21 12:42:12;;;;;;;10.65;5.57;;;;;;;;;;6119249;23;20028;-78
2023/03/21 12:44:44;;;;;;;9.02;4.63;;;;;;;;;;6145284;23;20022;-78
2023/03/21 12:47:16;;;;;;;9.20;5.03;;;;;;;;;;6118336;23;20483;-79
2023/03/21 12:49:50;;;;;;;8.07;4.65;;;;;;;;;;6094462;23;20100;-79
2023/03/21 12:52:26;;;;;;;10.35;5.18;;;;;;;;;;6118457;23;20606;-79
2023/03/21 12:54:59;;;;;;;9.40;5.38;;;;;;;;;;6094078;23;20075;-79
2023/03/21 12:57:31;;;;;;;8.98;4.95;;;;;;;;;;6146043;23;20088;-80
2023/03/21 13:00:10;;;;;;;9.95;5.68;;;;;;;;;;6120770;23;20093;-80
2023/03/21 13:02:44;;;;;;;11.20;5.75;;;;;;;;;;6120309;23;20021;-79
2023/03/21 13:05:17;;;;;;;8.93;5.28;;;;;;;;;;6145657;23;20013;-79
2023/03/21 13:07:53;;;;;;;8.20;4.60;;;;;;;;;;6120002;23;20043;-76
2023/03/21 13:10:20;;;;;;;10.32;5.65;;;;;;;;;;6145755;23;20479;-78
2023/03/21 13:12:51;;;;;;;9.45;5.22;;;;;;;;;;6120530;23;20539;-78
2023/03/21 13:15:35;;;;;;;12.55;5.50;;;;;;;;;;6146024;23;20017;-78
2023/03/21 13:18:11;;;;;;;8.30;5.05;;;;;;;;;;6120238;23;20017;-78
2023/03/21 13:20:49;;;;;;;9.70;5.43;;;;;;;;;;6146126;23;20710;-78
2023/03/21 13:23:17;;;;;;;7.93;4.70;;;;;;;;;;6120450;23;20100;-78
2023/03/21 13:25:47;;;;;;;9.68;4.93;;;;;;;;;;6145509;23;20393;-78
2023/03/21 13:28:26;;;;;;;9.88;5.50;;;;;;;;;;6146139;23;20470;-78
2023/03/21 13:30:52;;;;;;;10.27;6.05;;;;;;;;;;6094822;23;20515;-78
2023/03/21 13:33:30;;;;;;;9.63;5.20;;;;;;;;;;6096147;23;20344;-78
2023/03/21 13:36:04;;;;;;;9.23;5.47;;;;;;;;;;6119041;23;20021;-78
2023/03/21 13:38:32;;;;;;;9.32;5.18;;;;;;;;;;6105453;23;20020;-79
2023/03/21 13:41:06;;;;;;;8.57;4.65;;;;;;;;;;6118549;23;20104;-79
2023/03/21 13:43:51;;;;;;;10.10;5.63;;;;;;;;;;6120331;23;20076;-77
2023/03/21 13:46:29;;;;;;;8.13;4.75;;;;;;;;;;6144470;23;20024;-78
2023/03/21 13:48:59;;;;;;;9.60;5.45;;;;;;;;;;6145733;23;20414;-78
2023/03/21 13:51:51;;;;;;;7.72;4.70;;;;;;;;;;6095298;23;20021;-78
2023/03/21 13:54:17;;;;;;;7.25;4.72;;;;;;;;;;6144331;23;20018;-78
2023/03/21 13:56:45;;;;;;;7.47;4.57;;;;;;;;;;6119507;23;20483;-78
2023/03/21 13:59:42;;;;;;;8.02;4.82;;;;;;;;;;6119126;23;20076;-78
2023/03/21 14:02:14;;;;;;;;;;;;;;;;;;6120186;23;20835;-79
2023/03/21 14:04:41;;;;;;;6.63;4.07;;;;;;;;;;6146229;23;19939;-79
2023/03/21 14:07:21;;;;;;;9.18;4.57;;;;;;;;;;6095024;23;20375;-79
2023/03/21 14:09:48;;;;;;;8.52;4.82;;;;;;;;;;6104306;23;20017;-79
2023/03/21 14:12:20;;;;;;;8.30;4.68;;;;;;;;;;6139872;23;20010;-79
2023/03/21 14:14:50;;;;;;;9.10;4.85;;;;;;;;;;6092806;23;20085;-79
2023/03/21 14:17:24;;;;;;;8.13;4.82;;;;;;;;;;6118898;23;20056;-78
2023/03/21 14:20:13;;;;;;;7.68;4.97;;;;;;;;;;6145965;23;20478;-78
2023/03/21 14:22:39;;;;;;;10.02;5.13;;;;;;;;;;6119286;23;20702;-79
2023/03/21 14:25:12;;;;;;;9.50;5.18;;;;;;;;;;6094856;23;20021;-79
2023/03/21 14:27:37;;;;;;;9.57;5.70;;;;;;;;;;6095880;23;20064;-78
2023/03/21 14:30:04;;;;;;;7.80;4.68;;;;;;;;;;6093931;23;20690;-78
2023/03/21 14:32:30;;;;;;;11.13;5.20;;;;;;;;;;6080455;23;20463;-79
2023/03/21 14:34:58;;;;;;;9.23;5.40;;;;;;;;;;6118967;23;20017;-78
2023/03/21 14:37:31;;;;;;;8.50;5.28;;;;;;;;;;6145116;23;20018;-79
2023/03/21 14:40:05;;;;;;;12.95;6.13;;;;;;;;;;6119001;23;20506;-78
2023/03/21 14:42:35;;;;;;;11.50;5.70;;;;;;;;;;6120038;23;20075;-78